sensor_id;sensor_type;location;lat;lon;timestamp;pressure;altitude;pressure_sealevel;temperature;humidity
44825;BME280;30542;47.928;2.138;2022-07-10T00:04:29;101373.25;;;24.60;42.54
44825;BME280;30542;47.928;2.138;2022-07-10T00:09:29;101379.97;;;24.57;42.15
44825;BME280;30542;47.928;2.138;2022-07-10T00:14:30;101381.59;;;24.53;41.88
44825;BME280;30542;47.928;2.138;2022-07-10T00:19:30;101381.31;;;24.49;41.17
44825;BME280;30542;47.928;2.138;2022-07-10T00:24:31;101380.22;;;24.50;41.06
44825;BME280;30542;47.928;2.138;2022-07-10T00:29:31;101377.53;;;24.45;41.06
44825;BME280;30542;47.928;2.138;2022-07-10T00:34:32;101375.38;;;24.42;40.74
44825;BME280;30542;47.928;2.138;2022-07-10T00:39:32;101368.13;;;24.43;40.64
44825;BME280;30542;47.928;2.138;2022-07-10T00:44:33;101372.44;;;24.39;40.42
44825;BME280;30542;47.928;2.138;2022-07-10T00:49:35;101369.75;;;24.39;40.25
44825;BME280;30542;47.928;2.138;2022-07-10T00:54:36;101358.97;;;24.39;40.26
44825;BME280;30542;47.928;2.138;2022-07-10T00:59:37;101362.16;;;24.36;40.52
44825;BME280;30542;47.928;2.138;2022-07-10T01:04:38;101359.47;;;24.36;40.10
44825;BME280;30542;47.928;2.138;2022-07-10T01:09:38;101354.31;;;24.34;40.11
44825;BME280;30542;47.928;2.138;2022-07-10T01:14:40;101352.19;;;24.36;39.86
44825;BME280;30542;47.928;2.138;2022-07-10T01:19:41;101354.06;;;24.36;39.99
44825;BME280;30542;47.928;2.138;2022-07-10T01:24:41;101340.88;;;24.29;39.80
44825;BME280;30542;47.928;2.138;2022-07-10T01:29:43;101340.88;;;24.29;39.87
44825;BME280;30542;47.928;2.138;2022-07-10T01:34:44;101323.63;;;24.25;39.98
44825;BME280;30542;47.928;2.138;2022-07-10T01:39:45;101342.75;;;24.28;39.93
44825;BME280;30542;47.928;2.138;2022-07-10T01:44:45;101343.03;;;24.27;39.67
44825;BME280;30542;47.928;2.138;2022-07-10T01:49:46;101338.69;;;24.26;39.76
44825;BME280;30542;47.928;2.138;2022-07-10T01:54:47;101344.09;;;24.26;39.65
44825;BME280;30542;47.928;2.138;2022-07-10T01:59:48;101352.16;;;24.21;39.60
44825;BME280;30542;47.928;2.138;2022-07-10T02:04:48;101355.94;;;24.20;39.61
44825;BME280;30542;47.928;2.138;2022-07-10T02:09:49;101355.38;;;24.18;39.55
44825;BME280;30542;47.928;2.138;2022-07-10T02:14:50;101345.16;;;24.10;39.49
44825;BME280;30542;47.928;2.138;2022-07-10T02:19:51;101362.41;;;24.14;39.41
44825;BME280;30542;47.928;2.138;2022-07-10T02:24:52;101352.97;;;24.11;39.45
44825;BME280;30542;47.928;2.138;2022-07-10T02:29:53;101348.38;;;24.12;39.51
44825;BME280;30542;47.928;2.138;2022-07-10T02:34:54;101347.84;;;24.10;39.63
44825;BME280;30542;47.928;2.138;2022-07-10T02:39:55;101346.22;;;24.09;39.66
44825;BME280;30542;47.928;2.138;2022-07-10T02:44:55;101336.00;;;24.11;39.94
44825;BME280;30542;47.928;2.138;2022-07-10T02:49:56;101327.13;;;24.10;39.99
44825;BME280;30542;47.928;2.138;2022-07-10T02:54:57;101332.50;;;24.10;40.34
44825;BME280;30542;47.928;2.138;2022-07-10T02:59:57;101322.56;;;24.11;40.45
44825;BME280;30542;47.928;2.138;2022-07-10T03:04:58;101326.31;;;24.10;40.32
44825;BME280;30542;47.928;2.138;2022-07-10T03:09:58;101329.81;;;24.10;40.39
44825;BME280;30542;47.928;2.138;2022-07-10T03:14:58;101324.97;;;24.07;40.42
44825;BME280;30542;47.928;2.138;2022-07-10T03:19:59;101324.69;;;24.09;40.59
44825;BME280;30542;47.928;2.138;2022-07-10T03:25:00;101340.03;;;24.08;40.63
44825;BME280;30542;47.928;2.138;2022-07-10T03:30:00;101326.03;;;24.06;40.38
44825;BME280;30542;47.928;2.138;2022-07-10T03:35:01;101329.53;;;24.01;40.81
44825;BME280;30542;47.928;2.138;2022-07-10T03:40:02;101317.13;;;24.00;40.79
44825;BME280;30542;47.928;2.138;2022-07-10T03:45:02;101317.94;;;24.01;40.78
44825;BME280;30542;47.928;2.138;2022-07-10T03:50:04;101323.59;;;23.99;40.91
44825;BME280;30542;47.928;2.138;2022-07-10T03:55:05;101295.03;;;23.78;40.84
44825;BME280;30542;47.928;2.138;2022-07-10T04:00:05;101322.00;;;23.93;40.99
44825;BME280;30542;47.928;2.138;2022-07-10T04:05:07;101321.94;;;23.88;40.84
44825;BME280;30542;47.928;2.138;2022-07-10T04:10:11;101312.56;;;23.86;40.60
44825;BME280;30542;47.928;2.138;2022-07-10T04:15:11;101326.81;;;23.86;40.96
44825;BME280;30542;47.928;2.138;2022-07-10T04:20:12;101322.50;;;23.85;40.95
44825;BME280;30542;47.928;2.138;2022-07-10T04:25:13;101320.88;;;23.84;40.76
44825;BME280;30542;47.928;2.138;2022-07-10T04:30:13;101331.09;;;23.87;40.76
44825;BME280;30542;47.928;2.138;2022-07-10T04:35:14;101330.81;;;23.84;40.84
44825;BME280;30542;47.928;2.138;2022-07-10T04:40:14;101333.25;;;23.85;40.80
44825;BME280;30542;47.928;2.138;2022-07-10T04:45:15;101337.28;;;23.83;41.18
44825;BME280;30542;47.928;2.138;2022-07-10T04:50:15;101333.22;;;23.80;41.05
44825;BME280;30542;47.928;2.138;2022-07-10T04:55:16;101330.53;;;23.80;41.06
44825;BME280;30542;47.928;2.138;2022-07-10T05:00:16;101331.38;;;23.80;40.82
44825;BME280;30542;47.928;2.138;2022-07-10T05:05:16;101338.88;;;23.78;41.19
44825;BME280;30542;47.928;2.138;2022-07-10T05:10:17;101339.16;;;23.77;40.97
44825;BME280;30542;47.928;2.138;2022-07-10T05:15:17;101339.69;;;23.74;41.05
44825;BME280;30542;47.928;2.138;2022-07-10T05:20:18;101346.16;;;23.78;41.03
44825;BME280;30542;47.928;2.138;2022-07-10T05:25:18;101341.03;;;23.76;41.17
44825;BME280;30542;47.928;2.138;2022-07-10T05:30:18;101340.50;;;23.74;41.23
44825;BME280;30542;47.928;2.138;2022-07-10T05:35:19;101339.41;;;23.75;41.57
44825;BME280;30542;47.928;2.138;2022-07-10T05:40:19;101351.25;;;23.74;41.36
44825;BME280;30542;47.928;2.138;2022-07-10T05:45:20;101335.91;;;23.75;41.39
44825;BME280;30542;47.928;2.138;2022-07-10T05:50:20;101337.81;;;23.79;41.54
44825;BME280;30542;47.928;2.138;2022-07-10T05:55:20;101335.38;;;23.78;41.53
44825;BME280;30542;47.928;2.138;2022-07-10T06:00:21;101344.00;;;23.80;41.54
44825;BME280;30542;47.928;2.138;2022-07-10T06:05:21;101339.69;;;23.84;41.63
44825;BME280;30542;47.928;2.138;2022-07-10T06:10:21;101357.47;;;23.85;41.74
44825;BME280;30542;47.928;2.138;2022-07-10T06:15:22;101348.84;;;23.88;41.64
44825;BME280;30542;47.928;2.138;2022-07-10T06:20:22;101345.13;;;23.89;41.72
44825;BME280;30542;47.928;2.138;2022-07-10T06:25:23;101348.84;;;23.88;41.79
44825;BME280;30542;47.928;2.138;2022-07-10T06:30:24;101343.75;;;23.92;41.99
44825;BME280;30542;47.928;2.138;2022-07-10T06:35:24;101338.09;;;23.88;42.10
44825;BME280;30542;47.928;2.138;2022-07-10T06:40:25;101324.06;;;23.76;42.18
44825;BME280;30542;47.928;2.138;2022-07-10T06:45:26;101296.56;;;23.64;42.13
44825;BME280;30542;47.928;2.138;2022-07-10T06:50:29;101332.47;;;23.90;42.24
44825;BME280;30542;47.928;2.138;2022-07-10T06:55:34;101332.88;;;23.56;42.62
44825;BME280;30542;47.928;2.138;2022-07-10T07:00:34;101326.34;;;23.42;43.11
44825;BME280;30542;47.928;2.138;2022-07-10T07:05:35;101334.88;;;23.28;43.45
44825;BME280;30542;47.928;2.138;2022-07-10T07:10:35;101328.75;;;23.38;43.43
44825;BME280;30542;47.928;2.138;2022-07-10T07:15:35;101333.66;;;23.51;43.25
44825;BME280;30542;47.928;2.138;2022-07-10T07:20:42;101328.72;;;23.28;43.49
44825;BME280;30542;47.928;2.138;2022-07-10T07:26:01;101334.13;;;23.38;43.36
44825;BME280;30542;47.928;2.138;2022-07-10T07:31:02;101327.16;;;23.42;43.69
44825;BME280;30542;47.928;2.138;2022-07-10T07:36:03;101338.19;;;23.46;43.29
44825;BME280;30542;47.928;2.138;2022-07-10T07:41:03;101336.28;;;23.36;43.12
44825;BME280;30542;47.928;2.138;2022-07-10T07:46:05;101342.47;;;23.42;43.63
44825;BME280;30542;47.928;2.138;2022-07-10T07:51:06;101319.59;;;23.34;43.45
44825;BME280;30542;47.928;2.138;2022-07-10T07:56:07;101317.16;;;23.32;43.87
44825;BME280;30542;47.928;2.138;2022-07-10T08:01:08;101311.50;;;23.34;43.35
44825;BME280;30542;47.928;2.138;2022-07-10T08:06:08;101316.75;;;23.56;43.13
44825;BME280;30542;47.928;2.138;2022-07-10T08:11:09;101309.97;;;23.43;42.44
44825;BME280;30542;47.928;2.138;2022-07-10T08:16:09;101315.56;;;23.37;41.88
44825;BME280;30542;47.928;2.138;2022-07-10T08:21:10;101303.16;;;23.30;41.39
44825;BME280;30542;47.928;2.138;2022-07-10T08:26:10;101298.94;;;23.40;42.16
44825;BME280;30542;47.928;2.138;2022-07-10T08:31:11;101301.13;;;23.63;42.44
44825;BME280;30542;47.928;2.138;2022-07-10T08:36:11;101293.94;;;23.69;41.12
44825;BME280;30542;47.928;2.138;2022-07-10T08:41:12;101290.97;;;23.70;39.43
44825;BME280;30542;47.928;2.138;2022-07-10T08:46:14;101292.81;;;23.65;38.46
44825;BME280;30542;47.928;2.138;2022-07-10T08:51:34;101281.31;;;23.69;37.85
44825;BME280;30542;47.928;2.138;2022-07-10T08:56:35;101286.13;;;23.67;37.66
44825;BME280;30542;47.928;2.138;2022-07-10T09:01:36;101278.91;;;23.78;36.65
44825;BME280;30542;47.928;2.138;2022-07-10T09:06:37;101273.28;;;23.90;37.17
44825;BME280;30542;47.928;2.138;2022-07-10T09:11:40;101274.06;;;23.95;37.13
44825;BME280;30542;47.928;2.138;2022-07-10T09:16:44;101278.66;;;24.00;37.62
44825;BME280;30542;47.928;2.138;2022-07-10T09:21:50;101275.72;;;24.01;38.02
44825;BME280;30542;47.928;2.138;2022-07-10T09:27:00;101268.72;;;24.05;38.18
44825;BME280;30542;47.928;2.138;2022-07-10T09:32:03;101261.97;;;24.03;38.79
44825;BME280;30542;47.928;2.138;2022-07-10T09:37:24;101263.59;;;24.04;39.29
44825;BME280;30542;47.928;2.138;2022-07-10T09:47:34;101255.50;;;23.99;40.25
44825;BME280;30542;47.928;2.138;2022-07-10T09:52:36;101250.41;;;23.97;40.27
44825;BME280;30542;47.928;2.138;2022-07-10T09:57:37;101246.38;;;23.90;41.75
44825;BME280;30542;47.928;2.138;2022-07-10T10:02:38;101236.41;;;23.85;41.34
44825;BME280;30542;47.928;2.138;2022-07-10T10:07:39;101246.09;;;24.06;40.55
44825;BME280;30542;47.928;2.138;2022-07-10T10:12:46;101252.84;;;24.14;39.38
44825;BME280;30542;47.928;2.138;2022-07-10T10:17:50;101244.50;;;24.16;38.90
44825;BME280;30542;47.928;2.138;2022-07-10T10:22:53;101238.59;;;24.14;38.62
44825;BME280;30542;47.928;2.138;2022-07-10T10:27:55;101227.25;;;24.12;38.57
44825;BME280;30542;47.928;2.138;2022-07-10T10:32:56;101228.88;;;24.13;39.09
44825;BME280;30542;47.928;2.138;2022-07-10T10:37:57;101221.34;;;23.99;39.43
44825;BME280;30542;47.928;2.138;2022-07-10T10:42:58;101222.94;;;24.16;39.11
44825;BME280;30542;47.928;2.138;2022-07-10T10:48:16;101221.34;;;24.20;38.71
44825;BME280;30542;47.928;2.138;2022-07-10T10:53:26;101214.84;;;24.26;38.43
44825;BME280;30542;47.928;2.138;2022-07-10T10:58:38;101213.25;;;24.25;38.03
44825;BME280;30542;47.928;2.138;2022-07-10T11:03:39;101196.84;;;24.16;38.03
44825;BME280;30542;47.928;2.138;2022-07-10T11:08:42;101198.47;;;24.22;38.06
44825;BME280;30542;47.928;2.138;2022-07-10T11:13:47;101195.22;;;24.25;38.05
44825;BME280;30542;47.928;2.138;2022-07-10T11:18:52;101186.59;;;24.23;38.11
44825;BME280;30542;47.928;2.138;2022-07-10T11:24:03;101189.56;;;24.27;38.54
44825;BME280;30542;47.928;2.138;2022-07-10T11:29:06;101187.38;;;24.34;38.14
44825;BME280;30542;47.928;2.138;2022-07-10T11:34:07;101181.75;;;24.36;37.98
44825;BME280;30542;47.928;2.138;2022-07-10T11:39:09;101170.44;;;24.34;38.01
44825;BME280;30542;47.928;2.138;2022-07-10T11:44:15;101167.19;;;24.37;38.06
44825;BME280;30542;47.928;2.138;2022-07-10T11:49:16;101166.16;;;24.27;38.12
44825;BME280;30542;47.928;2.138;2022-07-10T11:54:17;101167.78;;;24.39;38.29
44825;BME280;30542;47.928;2.138;2022-07-10T11:59:26;101168.84;;;24.43;38.11
44825;BME280;30542;47.928;2.138;2022-07-10T12:04:30;101157.00;;;24.44;38.01
44825;BME280;30542;47.928;2.138;2022-07-10T12:09:31;101165.59;;;24.41;38.21
44825;BME280;30542;47.928;2.138;2022-07-10T12:14:32;101147.53;;;24.46;38.52
44825;BME280;30542;47.928;2.138;2022-07-10T12:19:37;101146.47;;;24.52;39.11
44825;BME280;30542;47.928;2.138;2022-07-10T12:24:38;101148.03;;;24.64;38.77
44825;BME280;30542;47.928;2.138;2022-07-10T12:29:38;101155.84;;;24.65;39.37
44825;BME280;30542;47.928;2.138;2022-07-10T12:34:42;101140.75;;;24.69;39.50
44825;BME280;30542;47.928;2.138;2022-07-10T12:39:52;101142.06;;;24.77;39.59
44825;BME280;30542;47.928;2.138;2022-07-10T12:45:13;101135.84;;;24.82;39.84
44825;BME280;30542;47.928;2.138;2022-07-10T12:50:15;101106.22;;;24.71;39.53
44825;BME280;30542;47.928;2.138;2022-07-10T12:55:19;101126.38;;;24.89;39.87
44825;BME280;30542;47.928;2.138;2022-07-10T13:00:28;101127.16;;;24.95;39.81
44825;BME280;30542;47.928;2.138;2022-07-10T13:05:37;101129.00;;;24.99;39.62
44825;BME280;30542;47.928;2.138;2022-07-10T13:10:47;101114.94;;;25.08;39.17
44825;BME280;30542;47.928;2.138;2022-07-10T13:15:48;101107.44;;;25.10;39.09
44825;BME280;30542;47.928;2.138;2022-07-10T13:20:55;101109.28;;;25.14;38.92
44825;BME280;30542;47.928;2.138;2022-07-10T13:25:57;101104.41;;;25.16;38.60
44825;BME280;30542;47.928;2.138;2022-07-10T13:30:59;101102.84;;;25.05;38.99
44825;BME280;30542;47.928;2.138;2022-07-10T13:36:01;101104.25;;;24.92;39.23
44825;BME280;30542;47.928;2.138;2022-07-10T13:41:02;101094.03;;;24.89;38.61
44825;BME280;30542;47.928;2.138;2022-07-10T13:46:02;101095.63;;;24.90;38.65
44825;BME280;30542;47.928;2.138;2022-07-10T13:51:03;101094.00;;;24.94;38.44
44825;BME280;30542;47.928;2.138;2022-07-10T13:56:05;101098.09;;;24.87;38.93
44825;BME280;30542;47.928;2.138;2022-07-10T14:01:06;101092.41;;;24.88;38.47
44825;BME280;30542;47.928;2.138;2022-07-10T14:06:07;101087.56;;;24.90;38.47
44825;BME280;30542;47.928;2.138;2022-07-10T14:11:07;101083.22;;;24.94;38.33
44825;BME280;30542;47.928;2.138;2022-07-10T14:16:07;101080.53;;;24.94;38.10
44825;BME280;30542;47.928;2.138;2022-07-10T14:21:08;101071.38;;;24.90;38.02
44825;BME280;30542;47.928;2.138;2022-07-10T14:26:10;101080.53;;;24.94;38.37
44825;BME280;30542;47.928;2.138;2022-07-10T14:31:11;101077.84;;;24.94;38.31
44825;BME280;30542;47.928;2.138;2022-07-10T14:41:12;101067.09;;;24.89;38.38
44825;BME280;30542;47.928;2.138;2022-07-10T14:46:12;101064.66;;;24.93;38.31
44825;BME280;30542;47.928;2.138;2022-07-10T14:51:13;101055.72;;;24.92;38.36
44825;BME280;30542;47.928;2.138;2022-07-10T14:56:13;101052.78;;;24.94;37.98
44825;BME280;30542;47.928;2.138;2022-07-10T15:01:16;101047.66;;;24.92;38.30
44825;BME280;30542;47.928;2.138;2022-07-10T15:06:16;101038.22;;;24.95;38.13
44825;BME280;30542;47.928;2.138;2022-07-10T15:11:18;101037.41;;;24.94;38.24
44825;BME280;30542;47.928;2.138;2022-07-10T15:16:22;101045.50;;;24.94;38.36
44825;BME280;30542;47.928;2.138;2022-07-10T15:21:23;101040.91;;;24.95;38.32
44825;BME280;30542;47.928;2.138;2022-07-10T15:26:23;101038.75;;;24.97;38.08
44825;BME280;30542;47.928;2.138;2022-07-10T15:31:24;101036.84;;;24.97;37.93
44825;BME280;30542;47.928;2.138;2022-07-10T15:36:24;101028.22;;;24.95;38.03
44825;BME280;30542;47.928;2.138;2022-07-10T15:41:25;101028.47;;;24.99;38.24
44825;BME280;30542;47.928;2.138;2022-07-10T15:46:26;101031.97;;;24.99;38.10
44825;BME280;30542;47.928;2.138;2022-07-10T15:51:27;101036.00;;;25.02;38.15
44825;BME280;30542;47.928;2.138;2022-07-10T15:56:27;101036.25;;;25.05;38.44
44825;BME280;30542;47.928;2.138;2022-07-10T16:01:27;101027.63;;;25.03;38.34
44825;BME280;30542;47.928;2.138;2022-07-10T16:06:28;101016.06;;;25.03;38.12
44825;BME280;30542;47.928;2.138;2022-07-10T16:11:28;101019.53;;;25.03;38.31
44825;BME280;30542;47.928;2.138;2022-07-10T16:16:29;101020.34;;;25.04;38.28
44825;BME280;30542;47.928;2.138;2022-07-10T16:21:30;101016.84;;;25.03;38.33
44825;BME280;30542;47.928;2.138;2022-07-10T16:26:30;101010.94;;;25.01;38.48
44825;BME280;30542;47.928;2.138;2022-07-10T16:31:35;100964.75;;;24.79;38.40
44825;BME280;30542;47.928;2.138;2022-07-10T16:36:40;100961.00;;;24.75;38.51
44825;BME280;30542;47.928;2.138;2022-07-10T16:41:40;100998.53;;;25.05;38.67
44825;BME280;30542;47.928;2.138;2022-07-10T16:46:41;100988.81;;;25.04;38.78
44825;BME280;30542;47.928;2.138;2022-07-10T16:51:41;101006.31;;;25.07;38.76
44825;BME280;30542;47.928;2.138;2022-07-10T16:56:43;100992.03;;;25.07;38.88
44825;BME280;30542;47.928;2.138;2022-07-10T17:01:44;100983.94;;;25.07;38.76
44825;BME280;30542;47.928;2.138;2022-07-10T17:06:44;100987.50;;;25.02;39.59
44825;BME280;30542;47.928;2.138;2022-07-10T17:11:44;100984.75;;;25.07;41.80
44825;BME280;30542;47.928;2.138;2022-07-10T17:16:45;100990.66;;;25.14;42.09
44825;BME280;30542;47.928;2.138;2022-07-10T17:21:45;100977.94;;;25.20;42.32
44825;BME280;30542;47.928;2.138;2022-07-10T17:26:51;100984.38;;;25.24;42.38
44825;BME280;30542;47.928;2.138;2022-07-10T17:31:52;100974.63;;;25.28;41.95
44825;BME280;30542;47.928;2.138;2022-07-10T17:36:53;100968.75;;;25.21;41.71
44825;BME280;30542;47.928;2.138;2022-07-10T17:41:53;100970.41;;;25.17;40.78
44825;BME280;30542;47.928;2.138;2022-07-10T17:46:54;100975.00;;;25.16;40.68
44825;BME280;30542;47.928;2.138;2022-07-10T17:51:54;100976.91;;;25.16;40.37
44825;BME280;30542;47.928;2.138;2022-07-10T17:56:55;100965.56;;;25.19;41.14
44825;BME280;30542;47.928;2.138;2022-07-10T18:01:55;100963.84;;;25.28;40.80
44825;BME280;30542;47.928;2.138;2022-07-10T18:06:56;100971.84;;;25.38;40.52
44825;BME280;30542;47.928;2.138;2022-07-10T18:11:57;100971.84;;;25.38;40.44
44825;BME280;30542;47.928;2.138;2022-07-10T18:16:58;100966.97;;;25.40;40.03
44825;BME280;30542;47.928;2.138;2022-07-10T18:21:58;100975.34;;;25.39;39.81
44825;BME280;30542;47.928;2.138;2022-07-10T18:26:59;100972.38;;;25.40;39.61
44825;BME280;30542;47.928;2.138;2022-07-10T18:31:59;100958.88;;;25.40;39.34
44825;BME280;30542;47.928;2.138;2022-07-10T18:37:00;100967.25;;;25.39;38.99
44825;BME280;30542;47.928;2.138;2022-07-10T18:42:04;100965.38;;;25.39;39.01
44825;BME280;30542;47.928;2.138;2022-07-10T18:47:05;100963.75;;;25.38;38.94
44825;BME280;30542;47.928;2.138;2022-07-10T18:52:05;100965.38;;;25.39;38.73
44825;BME280;30542;47.928;2.138;2022-07-10T18:57:06;100962.66;;;25.39;38.80
44825;BME280;30542;47.928;2.138;2022-07-10T19:02:09;100941.72;;;25.31;38.85
44825;BME280;30542;47.928;2.138;2022-07-10T19:07:10;100965.38;;;25.39;38.64
44825;BME280;30542;47.928;2.138;2022-07-10T19:12:10;100981.00;;;25.42;39.12
44825;BME280;30542;47.928;2.138;2022-07-10T19:17:10;100973.41;;;25.44;39.17
44825;BME280;30542;47.928;2.138;2022-07-10T19:22:11;100978.78;;;25.44;39.17
44825;BME280;30542;47.928;2.138;2022-07-10T19:27:12;100974.50;;;25.43;39.24
44825;BME280;30542;47.928;2.138;2022-07-10T19:32:12;100977.69;;;25.45;39.21
44825;BME280;30542;47.928;2.138;2022-07-10T19:37:12;100971.81;;;25.43;39.44
44825;BME280;30542;47.928;2.138;2022-07-10T19:42:13;100960.53;;;25.36;39.38
44825;BME280;30542;47.928;2.138;2022-07-10T19:47:14;100987.13;;;25.48;39.52
44825;BME280;30542;47.928;2.138;2022-07-10T19:52:15;100954.03;;;25.37;39.72
44825;BME280;30542;47.928;2.138;2022-07-10T19:57:15;100922.72;;;25.12;39.55
44825;BME280;30542;47.928;2.138;2022-07-10T20:02:16;100982.53;;;25.48;39.57
44825;BME280;30542;47.928;2.138;2022-07-10T20:07:16;100984.19;;;25.44;39.60
44825;BME280;30542;47.928;2.138;2022-07-10T20:12:17;100996.81;;;25.49;39.43
44825;BME280;30542;47.928;2.138;2022-07-10T20:17:18;100992.28;;;25.44;39.98
44825;BME280;30542;47.928;2.138;2022-07-10T20:22:18;100992.75;;;25.51;39.89
44825;BME280;30542;47.928;2.138;2022-07-10T20:27:18;100994.19;;;25.44;40.17
44825;BME280;30542;47.928;2.138;2022-07-10T20:32:19;100972.47;;;25.30;40.11
44825;BME280;30542;47.928;2.138;2022-07-10T20:37:19;101003.19;;;25.34;40.34
44825;BME280;30542;47.928;2.138;2022-07-10T20:42:39;101009.63;;;25.38;40.37
44825;BME280;30542;47.928;2.138;2022-07-10T20:47:40;101013.44;;;25.32;40.61
44825;BME280;30542;47.928;2.138;2022-07-10T20:52:42;101018.31;;;25.30;40.54
44825;BME280;30542;47.928;2.138;2022-07-10T20:57:43;101018.81;;;25.32;40.55
44825;BME280;30542;47.928;2.138;2022-07-10T21:02:43;101009.19;;;25.26;40.90
44825;BME280;30542;47.928;2.138;2022-07-10T21:07:44;101021.00;;;25.30;40.82
44825;BME280;30542;47.928;2.138;2022-07-10T21:12:44;101020.47;;;25.28;41.04
44825;BME280;30542;47.928;2.138;2022-07-10T21:17:44;101017.78;;;25.28;40.90
44825;BME280;30542;47.928;2.138;2022-07-10T21:22:45;101028.56;;;25.28;40.98
44825;BME280;30542;47.928;2.138;2022-07-10T21:27:45;101025.34;;;25.26;40.98
44825;BME280;30542;47.928;2.138;2022-07-10T21:32:45;101022.66;;;25.26;41.08
44825;BME280;30542;47.928;2.138;2022-07-10T21:37:49;101026.72;;;25.23;40.73
44825;BME280;30542;47.928;2.138;2022-07-10T21:42:49;101026.72;;;25.23;41.00
44825;BME280;30542;47.928;2.138;2022-07-10T21:47:49;101029.69;;;25.22;41.34
44825;BME280;30542;47.928;2.138;2022-07-10T21:52:50;101033.47;;;25.21;41.28
44825;BME280;30542;47.928;2.138;2022-07-10T21:57:50;101021.88;;;25.20;41.23
44825;BME280;30542;47.928;2.138;2022-07-10T22:02:51;101029.47;;;25.18;41.43
44825;BME280;30542;47.928;2.138;2022-07-10T22:07:51;101022.44;;;25.17;41.49
44825;BME280;30542;47.928;2.138;2022-07-10T22:12:52;101022.72;;;25.16;41.26
44825;BME280;30542;47.928;2.138;2022-07-10T22:17:52;101012.78;;;25.11;41.33
44825;BME280;30542;47.928;2.138;2022-07-10T22:22:52;101007.09;;;25.13;41.66
44825;BME280;30542;47.928;2.138;2022-07-10T22:27:53;101013.59;;;25.12;41.64
44825;BME280;30542;47.928;2.138;2022-07-10T22:32:54;101013.88;;;25.10;41.48
44825;BME280;30542;47.928;2.138;2022-07-10T22:37:54;101019.53;;;25.09;41.48
44825;BME280;30542;47.928;2.138;2022-07-10T22:42:54;101021.69;;;25.07;41.50
44825;BME280;30542;47.928;2.138;2022-07-10T22:47:55;100995.84;;;25.00;41.52
44825;BME280;30542;47.928;2.138;2022-07-10T22:52:55;101017.41;;;25.05;41.47
44825;BME280;30542;47.928;2.138;2022-07-10T22:57:56;101016.59;;;25.00;41.56
44825;BME280;30542;47.928;2.138;2022-07-10T23:02:57;101016.06;;;25.03;41.42
44825;BME280;30542;47.928;2.138;2022-07-10T23:07:57;101021.19;;;24.99;41.53
44825;BME280;30542;47.928;2.138;2022-07-10T23:12:59;101016.91;;;24.98;41.59
44825;BME280;30542;47.928;2.138;2022-07-10T23:17:59;101006.41;;;24.97;41.57
44825;BME280;30542;47.928;2.138;2022-07-10T23:23:00;101007.22;;;24.97;41.57
44825;BME280;30542;47.928;2.138;2022-07-10T23:28:00;101009.09;;;24.97;41.65
44825;BME280;30542;47.928;2.138;2022-07-10T23:33:01;101007.75;;;24.94;41.59
44825;BME280;30542;47.928;2.138;2022-07-10T23:38:01;101001.03;;;24.92;41.60
44825;BME280;30542;47.928;2.138;2022-07-10T23:43:01;100988.91;;;24.94;41.75
44825;BME280;30542;47.928;2.138;2022-07-10T23:48:03;100988.34;;;24.92;41.69
44825;BME280;30542;47.928;2.138;2022-07-10T23:53:04;100991.63;;;24.89;41.72
44825;BME280;30542;47.928;2.138;2022-07-10T23:58:05;100992.16;;;24.91;41.73
